Kelowna Airport
CYLW : now visible

Airfield :











YOU CAN JOIN US ON...

 
LOGIN :

Register | Disclaimer

   EN    FR    IT 

 









Legend :    VFR   Marginal VFR   IFR   Intensive IFR   Very Intensive IFR
Visi :
Ceiling :
>= 8 km
>= 3000ft
5 to 8 km
1000 to 3000 ft
1500m to 5 km
500 to 1000 ft
800 to 1500m
200 to 500 ft
< 800m
< 200 ft
Symbols :   Thunderstorms  Fog  Heavy snow  Heavy precipitations  Wind > 20 kt






- Airport Elevation : 1409 ft
- IATA code : YLW


CYLW - Kelowna

CURRENT METAR :
  • 081000Z AUTO 00000KT 9SM OVC045 M04/M07 A3009 RMK SLP214

EXPIRED METARs :
  • 080900Z AUTO 16003KT 9SM FEW037 OVC050 M04/M07 A3009 RMK SLP215
  • 080800Z AUTO 15005KT 9SM OVC030 M04/M07 A3010 RMK SLP220

TAF TAF CYLW
Valid from the 08 at 07:00 until the 08 at 19:00 UTC


080640Z 0807/0819 18007KT P6SM OVC030
TEMPO 0807/0812 OVC020
FM081200 VRB03KT P6SM SCT012 OVC030
TEMPO 0812/0819 2SM -SHSN OVC012 RMK FCST BASED ON AUTO OBS. NXT FCST BY 081300Z
CZVR FIR / North America



MET'MAP, your aeronautical weather chart ! - Copyright ORBIFLY December 2007 - Disclaimer

ORBIFLY MET'MAP TEAM :

Programming & Development : Alexandra Zaïnal
Original concept : Baudouin d'Aumeries
Technical & hardware support : Manuel Goepfert
Assistance : Marc-Olivier Méhu




SOURCES & CREDITS :

   NOAA       Earth
Advisory